This is the latest recevied weather packets stored in our database for station/object M0XDC. If no packets are shown the sender has not sent any weather packets the latest 10 day(s).
| Time | Temp. | Humidity | Pressure | Rain* | Wind** | Luminosity | Snow |
|---|---|---|---|---|---|---|---|
| 1777896874 | 14.44° C | 76% | 1012.3 hPa | 0 mm | - | - | - |
| 1777895074 | 13.89° C | 77% | 1012.3 hPa | 0 mm | - | - | - |
| 1777893274 | 13.33° C | 79% | 1013 hPa | 0 mm | - | - | - |
| 1777891474 | 13.33° C | 79% | 1012.7 hPa | 0 mm | - | - | - |
| 1777889674 | 12.78° C | 80% | 1012.6 hPa | 0 mm | - | - | - |
| 1777887874 | 12.78° C | 81% | 1012.7 hPa | 0 mm | - | - | - |
| 1777886073 | 12.22° C | 82% | 1012.3 hPa | 0 mm | - | - | - |
| 1777884274 | 12.22° C | 83% | 1012.4 hPa | 0 mm | - | - | - |
| 1777882474 | 11.67° C | 84% | 1012 hPa | 0 mm | - | - | - |
| 1777880674 | 11.67° C | 85% | 1011.9 hPa | 0 mm | - | - | - |
| 1777878874 | 11.67° C | 85% | 1011.6 hPa | 0 mm | - | - | - |
| 1777877074 | 11.11° C | 86% | 1011.3 hPa | 0 mm | - | - | - |
| 1777875274 | 11.11° C | 88% | 1010.8 hPa | 0 mm | - | - | - |
| 1777873474 | 11.11° C | 88% | 1010.7 hPa | 0 mm | - | - | - |
| 1777871674 | 11.11° C | 90% | 1010.2 hPa | 0 mm | - | - | - |
| 1777869874 | 11.11° C | 90% | 1010.2 hPa | 0 mm | - | - | - |
| 1777868074 | 11.11° C | 91% | 1009.8 hPa | 0 mm | - | - | - |
| 1777866274 | 11.11° C | 90% | 1009.9 hPa | 0 mm | - | - | - |
| 1777864474 | 11.11° C | 90% | 1009.9 hPa | 0 mm | - | - | - |
| 1777862674 | 11.11° C | 90% | 1009.8 hPa | 0 mm | - | - | - |
| 1777860874 | 11.11° C | 89% | 1009.7 hPa | 0 mm | - | - | - |
| 1777859074 | 11.67° C | 88% | 1009.6 hPa | 0 mm | - | - | - |
| 1777857274 | 11.67° C | 86% | 1009.7 hPa | 0 mm | - | - | - |
| 1777855474 | 12.22° C | 82% | 1009.4 hPa | 0 mm | - | - | - |
| 1777853673 | 13.33° C | 77% | 1009.3 hPa | 0 mm | - | - | - |
* Rain latest hour (hover to see other rain measurements)
** Current wind speed in m/s (hover to see current wind gust speed)